Time;durP1;ratioP1;P1;durP2;ratioP2;P2;SDS_P1;SDS_P2;PMS_P1;PMS_P2;Temp;Humidity;BMP_temperature;BMP_pressure;BME280_temperature;BME280_humidity;BME280_pressure;Samples;Min_cycle;Max_cycle;Signal;HPM_P1;HPM_P2
2022/01/20 00:01:46;;;;;;;;;3.20;3.20;;;;;;;;5270381;28;8764;-68
2022/01/20 00:04:24;;;;;;;;;3.00;3.00;;;;;;;;5288535;28;8771;-68
2022/01/20 00:26:07;;;;;;;;;3.00;3.00;;;;;;;;5288506;28;8780;-70
2022/01/20 00:28:47;;;;;;;;;5.80;5.40;;;;;;;;5270451;28;8768;-70
2022/01/20 00:31:39;;;;;;;;;0.40;0.40;;;;;;;;5252888;28;9455;-70
2022/01/20 00:34:14;;;;;;;;;0.80;0.80;;;;;;;;5253601;28;8802;-68
2022/01/20 00:39:36;;;;;;;;;4.00;4.00;;;;;;;;5270014;28;8918;-70
2022/01/20 00:42:08;;;;;;;;;2.50;2.50;;;;;;;;5253106;28;8939;-70
2022/01/20 00:44:39;;;;;;;;;4.40;4.40;;;;;;;;5269997;28;9845;-69
2022/01/20 00:47:11;;;;;;;;;3.20;3.20;;;;;;;;5269829;28;9555;-69
2022/01/20 00:49:43;;;;;;;;;4.60;4.60;;;;;;;;5254532;28;8833;-69
2022/01/20 00:52:14;;;;;;;;;8.60;8.60;;;;;;;;5273959;28;8788;-69
2022/01/20 00:54:45;;;;;;;;;7.40;7.40;;;;;;;;5291697;28;8789;-70
2022/01/20 00:57:16;;;;;;;;;3.50;3.50;;;;;;;;5274643;28;8781;-69
2022/01/20 00:59:48;;;;;;;;;4.00;4.00;;;;;;;;5274286;28;8835;-69
2022/01/20 01:02:21;;;;;;;;;5.50;5.50;;;;;;;;5257161;28;8760;-69
2022/01/20 01:05:11;;;;;;;;;7.40;7.40;;;;;;;;5273647;28;10371;-69
2022/01/20 01:07:45;;;;;;;;;4.00;4.00;;;;;;;;5273417;28;8781;-69
2022/01/20 01:10:38;;;;;;;;;7.60;7.60;;;;;;;;5292392;28;9404;-70
2022/01/20 01:13:28;;;;;;;;;5.60;5.60;;;;;;;;5292332;28;8779;-70
2022/01/20 01:16:00;;;;;;;;;5.40;5.40;;;;;;;;5256959;28;9522;-69
2022/01/20 01:21:30;;;;;;;;;6.00;6.00;;;;;;;;5256483;28;8811;-69
2022/01/20 01:24:01;;;;;;;;;4.40;4.40;;;;;;;;5273344;28;8912;-69
2022/01/20 01:26:32;;;;;;;;;10.00;10.00;;;;;;;;5256557;28;9525;-70
2022/01/20 01:29:18;;;;;;;;;6.75;6.75;;;;;;;;5273588;28;8829;-70
2022/01/20 01:31:50;;;;;;;;;6.60;6.60;;;;;;;;5291279;28;9491;-69
2022/01/20 01:34:41;;;;;;;;;7.80;7.80;;;;;;;;5291636;28;8757;-69
2022/01/20 01:40:05;;;;;;;;;12.40;12.00;;;;;;;;5272985;28;8783;-69
2022/01/20 01:42:43;;;;;;;;;6.00;6.00;;;;;;;;5272737;28;8933;-69
2022/01/20 01:45:19;;;;;;;;;4.00;3.80;;;;;;;;5273526;28;9505;-69
2022/01/20 01:47:51;;;;;;;;;4.40;4.40;;;;;;;;5256887;28;8934;-68
2022/01/20 01:50:26;;;;;;;;;3.00;3.00;;;;;;;;5272769;28;8843;-69
2022/01/20 01:52:57;;;;;;;;;3.80;3.80;;;;;;;;5272695;28;8780;-69
2022/01/20 01:55:29;;;;;;;;;3.00;3.00;;;;;;;;5290857;28;8883;-69
2022/01/20 01:58:00;;;;;;;;;3.40;3.20;;;;;;;;5239137;28;8784;-67
2022/01/20 02:00:31;;;;;;;;;3.00;3.00;;;;;;;;5255525;28;8804;-68
2022/01/20 02:03:23;;;;;;;;;4.00;4.00;;;;;;;;5290329;28;8907;-68
2022/01/20 02:06:24;;;;;;;;;9.00;9.00;;;;;;;;5257027;28;8765;-68
2022/01/20 02:17:53;;;;;;;;;3.80;3.80;;;;;;;;5272575;28;9490;-70
2022/01/20 02:18:09;;;;;;;;;4.00;4.00;;;;;;;;5272152;28;9479;-70
2022/01/20 02:20:41;;;;;;;;;8.20;8.20;;;;;;;;5272019;28;8819;-72
2022/01/20 02:23:17;;;;;;;;;2.60;1.00;;;;;;;;5273365;28;8968;-72
2022/01/20 02:25:48;;;;;;;;;4.00;2.80;;;;;;;;5290405;28;8815;-71
2022/01/20 02:28:37;;;;;;;;;5.20;4.80;;;;;;;;5290489;28;8807;-69
2022/01/20 02:31:09;;;;;;;;;4.00;3.60;;;;;;;;5255471;28;8765;-70
2022/01/20 02:33:41;;;;;;;;;2.60;2.60;;;;;;;;5272362;28;8784;-69
2022/01/20 02:36:15;;;;;;;;;1.00;1.00;;;;;;;;5238779;28;8882;-69
2022/01/20 02:38:55;;;;;;;;;3.80;3.80;;;;;;;;5254765;28;8788;-68
2022/01/20 02:47:27;;;;;;;;;3.00;3.00;;;;;;;;5289898;28;8792;-68
2022/01/20 02:49:59;;;;;;;;;13.40;12.60;;;;;;;;5290383;28;9472;-69
2022/01/20 02:52:30;;;;;;;;;6.60;6.00;;;;;;;;5272378;28;8780;-70
2022/01/20 02:55:01;;;;;;;;;4.00;4.00;;;;;;;;5271454;28;8906;-70
2022/01/20 02:57:33;;;;;;;;;5.20;5.20;;;;;;;;5271484;28;11385;-70
2022/01/20 03:00:06;;;;;;;;;1.80;1.80;;;;;;;;5254697;28;8834;-70
2022/01/20 03:02:38;;;;;;;;;5.60;5.60;;;;;;;;5271629;28;8777;-70
2022/01/20 03:05:11;;;;;;;;;4.00;4.00;;;;;;;;5289341;28;9635;-70
2022/01/20 03:07:45;;;;;;;;;1.00;1.00;;;;;;;;5271203;28;8769;-70
2022/01/20 03:10:17;;;;;;;;;9.80;7.00;;;;;;;;5271322;28;9613;-70
2022/01/20 03:12:49;;;;;;;;;1.00;1.00;;;;;;;;5271214;28;8768;-69
2022/01/20 03:15:20;;;;;;;;;6.00;6.00;;;;;;;;5289220;28;8777;-70
2022/01/20 03:17:51;;;;;;;;;5.50;5.50;;;;;;;;5289794;28;8787;-71
2022/01/20 03:20:21;;;;;;;;;3.50;3.50;;;;;;;;5237273;28;12104;-71
2022/01/20 03:23:10;;;;;;;;;5.20;5.20;;;;;;;;5289504;28;12196;-73
2022/01/20 03:25:42;;;;;;;;;3.00;3.00;;;;;;;;5254504;28;8865;-71
2022/01/20 03:28:14;;;;;;;;;1.40;1.40;;;;;;;;5254290;28;8768;-72
2022/01/20 03:30:45;;;;;;;;;23.60;17.60;;;;;;;;5288919;28;8776;-72
2022/01/20 03:33:16;;;;;;;;;3.60;3.60;;;;;;;;5270806;28;8815;-73
2022/01/20 03:35:50;;;;;;;;;2.40;2.40;;;;;;;;5270876;28;8787;-72
2022/01/20 03:38:39;;;;;;;;;3.20;3.20;;;;;;;;5274052;28;8911;-70
2022/01/20 03:41:11;;;;;;;;;4.80;4.80;;;;;;;;5271027;28;9480;-70
2022/01/20 03:43:42;;;;;;;;;4.00;4.00;;;;;;;;5254450;28;8899;-69
2022/01/20 03:46:14;;;;;;;;;0.00;0.00;;;;;;;;5270761;28;8764;-69
2022/01/20 03:49:03;;;;;;;;;4.80;4.80;;;;;;;;5253991;28;8923;-71
2022/01/20 03:51:34;;;;;;;;;1.40;1.40;;;;;;;;5270791;28;8895;-72
2022/01/20 03:54:05;;;;;;;;;3.00;3.00;;;;;;;;5270264;28;8837;-70
2022/01/20 03:57:02;;;;;;;;;3.00;3.00;;;;;;;;5269808;28;8784;-70
2022/01/20 04:00:03;;;;;;;;;11.20;11.20;;;;;;;;5270327;28;8784;-70
2022/01/20 04:02:48;;;;;;;;;15.60;15.60;;;;;;;;5255877;28;8772;-69
2022/01/20 04:05:56;;;;;;;;;4.40;4.40;;;;;;;;5288687;28;8799;-70
2022/01/20 04:08:38;;;;;;;;;1.80;1.80;;;;;;;;5270502;28;8760;-69
2022/01/20 04:11:12;;;;;;;;;3.60;3.60;;;;;;;;5254303;28;8777;-69
2022/01/20 04:14:03;;;;;;;;;3.20;3.20;;;;;;;;5256843;28;8848;-69
2022/01/20 04:19:33;;;;;;;;;3.20;3.20;;;;;;;;5270128;28;9467;-71
2022/01/20 04:22:05;;;;;;;;;5.20;5.20;;;;;;;;5253523;28;8768;-71
2022/01/20 04:24:37;;;;;;;;;3.80;3.80;;;;;;;;5254003;28;8826;-70
2022/01/20 04:27:09;;;;;;;;;6.00;6.00;;;;;;;;5258062;28;8787;-71
2022/01/20 04:29:42;;;;;;;;;6.60;6.60;;;;;;;;5258161;28;8908;-70
2022/01/20 04:32:13;;;;;;;;;3.60;3.20;;;;;;;;5273858;28;8800;-70
2022/01/20 04:34:44;;;;;;;;;6.20;6.20;;;;;;;;5257425;28;8793;-70
2022/01/20 04:37:18;;;;;;;;;6.00;6.00;;;;;;;;5293129;28;8761;-72
2022/01/20 04:39:51;;;;;;;;;4.20;4.20;;;;;;;;5274050;28;9588;-75
2022/01/20 04:42:43;;;;;;;;;2.20;2.20;;;;;;;;5274955;28;8768;-73
2022/01/20 04:45:21;;;;;;;;;4.00;4.00;;;;;;;;5274393;28;8797;-73
2022/01/20 04:48:02;;;;;;;;;4.80;4.80;;;;;;;;5257532;28;8772;-73
2022/01/20 04:57:18;;;;;;;;;16.60;16.60;;;;;;;;5292555;28;8799;-64
2022/01/20 04:59:54;;;;;;;;;8.80;8.80;;;;;;;;5273858;28;8788;-71
2022/01/20 05:02:28;;;;;;;;;7.80;7.80;;;;;;;;5257708;28;9483;-71
2022/01/20 05:05:07;;;;;;;;;3.40;3.40;;;;;;;;5292144;28;8849;-71
2022/01/20 05:07:38;;;;;;;;;7.40;6.40;;;;;;;;5273750;28;8907;-71
2022/01/20 05:14:34;;;;;;;;;6.60;6.60;;;;;;;;5291583;28;9371;-69
2022/01/20 05:17:05;;;;;;;;;7.80;7.00;;;;;;;;5273487;28;8792;-70
2022/01/20 05:19:36;;;;;;;;;6.80;6.80;;;;;;;;5256794;28;8805;-72
2022/01/20 05:22:07;;;;;;;;;8.00;8.00;;;;;;;;5256537;28;8819;-72
2022/01/20 05:24:51;;;;;;;;;7.80;7.80;;;;;;;;5251845;28;9469;-73
2022/01/20 05:27:22;;;;;;;;;12.80;12.80;;;;;;;;5235566;28;8778;-73
2022/01/20 05:29:55;;;;;;;;;30.00;29.40;;;;;;;;5252660;28;8779;-73
2022/01/20 05:32:27;;;;;;;;;6.00;6.00;;;;;;;;5235452;28;8822;-71
2022/01/20 05:34:58;;;;;;;;;6.00;6.00;;;;;;;;5235311;28;8782;-71
2022/01/20 05:37:29;;;;;;;;;1.00;1.00;;;;;;;;5236231;28;9071;-70
2022/01/20 05:40:00;;;;;;;;;4.40;4.40;;;;;;;;5251738;28;8814;-72
2022/01/20 05:42:36;;;;;;;;;7.40;7.40;;;;;;;;5252195;28;8777;-74
2022/01/20 05:45:12;;;;;;;;;16.80;16.40;;;;;;;;5252530;28;8827;-73
2022/01/20 05:47:46;;;;;;;;;10.20;10.20;;;;;;;;5252058;28;9267;-72
2022/01/20 05:55:12;;;;;;;;;15.20;15.20;;;;;;;;5269675;28;8703;-71
2022/01/20 05:57:43;;;;;;;;;21.40;21.40;;;;;;;;5252277;28;8794;-72
2022/01/20 06:00:16;;;;;;;;;19.20;19.20;;;;;;;;5269707;28;8810;-63
2022/01/20 06:05:37;;;;;;;;;9.80;9.00;;;;;;;;5251799;28;9528;-72
2022/01/20 06:08:10;;;;;;;;;10.00;10.00;;;;;;;;5250991;28;8912;-70
2022/01/20 06:10:42;;;;;;;;;9.00;9.00;;;;;;;;5251782;28;8878;-71
2022/01/20 06:13:17;;;;;;;;;10.40;10.40;;;;;;;;5251766;28;8774;-70
2022/01/20 06:16:07;;;;;;;;;15.00;15.00;;;;;;;;5252005;28;9478;-71
2022/01/20 06:18:38;;;;;;;;;14.20;14.20;;;;;;;;5234538;28;8783;-70
2022/01/20 06:21:09;;;;;;;;;12.00;12.00;;;;;;;;5234670;28;8821;-70
2022/01/20 06:23:41;;;;;;;;;11.20;11.20;;;;;;;;5234636;28;10712;-71
2022/01/20 06:26:11;;;;;;;;;9.00;9.00;;;;;;;;5234138;28;8791;-71
2022/01/20 06:28:43;;;;;;;;;5.80;5.80;;;;;;;;5250711;28;11383;-71
2022/01/20 06:31:33;;;;;;;;;6.40;6.00;;;;;;;;5269206;28;8767;-70
2022/01/20 06:34:03;;;;;;;;;16.00;16.00;;;;;;;;5250942;28;8818;-73
2022/01/20 06:36:34;;;;;;;;;34.25;33.50;;;;;;;;5235132;28;8883;-75
2022/01/20 06:39:05;;;;;;;;;34.25;30.75;;;;;;;;5236594;28;10616;-77
2022/01/20 06:41:41;;;;;;;;;47.40;40.80;;;;;;;;5235919;28;11500;-68
2022/01/20 06:44:13;;;;;;;;;24.60;23.20;;;;;;;;5250714;28;9491;-72
2022/01/20 06:46:44;;;;;;;;;15.80;15.40;;;;;;;;5233995;28;8851;-69
2022/01/20 06:49:20;;;;;;;;;12.80;12.60;;;;;;;;5251487;28;8782;-70
2022/01/20 06:52:03;;;;;;;;;9.00;7.40;;;;;;;;5234225;28;8766;-70
2022/01/20 06:54:35;;;;;;;;;13.00;13.00;;;;;;;;5250583;28;8821;-76
2022/01/20 06:57:11;;;;;;;;;4.80;4.80;;;;;;;;5218040;28;8783;-75
2022/01/20 06:59:42;;;;;;;;;6.00;6.00;;;;;;;;5234054;28;8798;-74
2022/01/20 07:02:13;;;;;;;;;6.75;6.75;;;;;;;;5234259;28;8875;-74
2022/01/20 07:04:46;;;;;;;;;6.00;6.00;;;;;;;;5233509;28;9687;-75
2022/01/20 07:07:19;;;;;;;;;16.00;15.20;;;;;;;;5234105;28;8775;-74
2022/01/20 07:10:10;;;;;;;;;13.00;12.00;;;;;;;;5250261;28;8813;-74
2022/01/20 07:12:51;;;;;;;;;22.00;22.00;;;;;;;;5250072;28;8778;-75
2022/01/20 07:15:23;;;;;;;;;14.80;13.80;;;;;;;;5249783;28;8852;-73
2022/01/20 07:17:55;;;;;;;;;8.60;8.60;;;;;;;;5233421;28;8880;-73
2022/01/20 07:20:30;;;;;;;;;7.40;7.40;;;;;;;;5250173;28;8802;-74
2022/01/20 07:23:10;;;;;;;;;8.60;8.20;;;;;;;;5250141;28;8787;-74
2022/01/20 07:26:04;;;;;;;;;7.40;6.80;;;;;;;;5262442;28;8779;-74
2022/01/20 07:28:39;;;;;;;;;9.40;9.20;;;;;;;;5217128;28;8778;-74
2022/01/20 07:31:10;;;;;;;;;8.60;8.60;;;;;;;;5268412;28;8813;-74
2022/01/20 07:33:42;;;;;;;;;9.00;9.00;;;;;;;;5267372;28;8790;-73
2022/01/20 07:36:14;;;;;;;;;12.00;12.00;;;;;;;;5250332;28;8766;-73
2022/01/20 07:38:46;;;;;;;;;10.20;9.40;;;;;;;;5249564;28;8798;-74
2022/01/20 07:41:18;;;;;;;;;12.00;12.00;;;;;;;;5232660;28;8790;-72
2022/01/20 07:44:08;;;;;;;;;11.40;11.40;;;;;;;;5267561;28;8767;-72
2022/01/20 07:46:59;;;;;;;;;3.40;3.40;;;;;;;;5249841;28;9481;-73
2022/01/20 07:49:48;;;;;;;;;4.80;4.00;;;;;;;;5252331;28;8804;-72
2022/01/20 07:52:19;;;;;;;;;13.40;13.00;;;;;;;;5233080;28;8797;-73
2022/01/20 07:54:51;;;;;;;;;14.60;14.60;;;;;;;;5232591;28;8783;-73
2022/01/20 07:57:22;;;;;;;;;10.40;8.80;;;;;;;;5254034;28;8864;-73
2022/01/20 07:59:53;;;;;;;;;10.00;10.00;;;;;;;;5265270;28;8968;-72
2022/01/20 08:02:32;;;;;;;;;1.00;1.00;;;;;;;;5249766;28;8881;-74
2022/01/20 08:05:04;;;;;;;;;6.80;6.80;;;;;;;;5233184;28;9450;-75
2022/01/20 08:07:35;;;;;;;;;9.80;8.80;;;;;;;;5215885;28;8887;-75
2022/01/20 08:10:07;;;;;;;;;3.40;3.40;;;;;;;;5232781;28;8786;-73
2022/01/20 08:12:39;;;;;;;;;1.80;1.80;;;;;;;;5266727;28;8774;-73
2022/01/20 08:15:17;;;;;;;;;9.00;9.00;;;;;;;;5249413;28;8783;-74
2022/01/20 08:18:01;;;;;;;;;1.80;1.40;;;;;;;;5235858;28;8771;-73
2022/01/20 08:20:36;;;;;;;;;3.80;3.40;;;;;;;;5249613;28;8822;-73
2022/01/20 08:23:09;;;;;;;;;16.20;16.20;;;;;;;;5249915;28;8910;-73
2022/01/20 08:25:41;;;;;;;;;16.80;16.80;;;;;;;;5249299;28;8799;-73
2022/01/20 08:28:12;;;;;;;;;11.75;11.75;;;;;;;;5267027;28;8798;-73
2022/01/20 08:30:44;;;;;;;;;13.40;13.40;;;;;;;;5232381;28;11139;-73
2022/01/20 08:33:17;;;;;;;;;13.00;12.60;;;;;;;;5265436;28;8818;-73
2022/01/20 08:35:50;;;;;;;;;12.80;12.80;;;;;;;;5249630;28;8802;-73
2022/01/20 08:38:38;;;;;;;;;9.20;9.20;;;;;;;;5248885;28;8798;-74
2022/01/20 08:41:09;;;;;;;;;9.00;7.80;;;;;;;;5248664;28;8817;-74
2022/01/20 08:43:40;;;;;;;;;11.20;10.40;;;;;;;;5249646;28;8767;-73
2022/01/20 08:46:12;;;;;;;;;6.60;6.00;;;;;;;;5232784;28;8865;-73
2022/01/20 08:48:43;;;;;;;;;8.20;8.20;;;;;;;;5265583;28;8856;-73
2022/01/20 08:51:26;;;;;;;;;7.20;7.20;;;;;;;;5267124;28;8925;-73
2022/01/20 08:54:15;;;;;;;;;4.00;4.00;;;;;;;;5249527;28;8799;-73
2022/01/20 08:56:50;;;;;;;;;6.60;6.60;;;;;;;;5232153;28;8787;-73
2022/01/20 08:59:21;;;;;;;;;18.00;18.00;;;;;;;;5248714;28;8860;-74
2022/01/20 09:01:53;;;;;;;;;7.80;7.80;;;;;;;;5248633;28;8763;-73
2022/01/20 09:04:24;;;;;;;;;10.80;10.80;;;;;;;;5267304;28;8787;-73
2022/01/20 09:07:18;;;;;;;;;7.80;7.80;;;;;;;;5244152;28;8912;-73
2022/01/20 09:09:50;;;;;;;;;7.40;7.40;;;;;;;;5249206;28;8855;-74
2022/01/20 09:15:30;;;;;;;;;2.20;2.20;;;;;;;;5253114;28;9472;-73
2022/01/20 09:18:20;;;;;;;;;5.20;5.20;;;;;;;;5238645;28;8775;-73
2022/01/20 09:20:52;;;;;;;;;7.00;7.00;;;;;;;;5252487;28;8811;-74
2022/01/20 09:23:26;;;;;;;;;15.00;15.00;;;;;;;;5269155;28;9497;-73
2022/01/20 09:26:00;;;;;;;;;23.80;23.80;;;;;;;;5252506;28;8801;-74
2022/01/20 09:28:34;;;;;;;;;5.80;5.80;;;;;;;;5269129;28;8782;-74
2022/01/20 09:31:06;;;;;;;;;3.80;3.80;;;;;;;;5235716;28;9559;-74
2022/01/20 09:33:39;;;;;;;;;9.60;9.60;;;;;;;;5218843;28;8822;-73
2022/01/20 09:36:28;;;;;;;;;12.40;10.80;;;;;;;;5270249;28;8821;-74
2022/01/20 09:39:00;;;;;;;;;7.80;7.40;;;;;;;;5236228;28;8928;-74
2022/01/20 09:42:00;;;;;;;;;19.20;18.00;;;;;;;;5232336;28;8806;-74
2022/01/20 09:44:36;;;;;;;;;11.60;10.80;;;;;;;;5252016;28;8868;-74
2022/01/20 09:47:25;;;;;;;;;4.40;4.40;;;;;;;;5269949;28;8783;-74
2022/01/20 09:50:34;;;;;;;;;5.20;4.00;;;;;;;;5251762;28;8877;-72
2022/01/20 09:53:38;;;;;;;;;3.60;3.60;;;;;;;;5252590;28;8778;-72
2022/01/20 09:56:20;;;;;;;;;6.80;6.80;;;;;;;;5236519;28;8770;-71
2022/01/20 09:58:51;;;;;;;;;11.00;9.60;;;;;;;;5269531;28;8834;-72
2022/01/20 10:01:42;;;;;;;;;21.60;18.60;;;;;;;;5235566;28;8790;-73
2022/01/20 10:04:22;;;;;;;;;14.20;14.20;;;;;;;;5219410;28;8789;-73
2022/01/20 10:06:59;;;;;;;;;6.40;6.40;;;;;;;;5235955;28;8802;-73
2022/01/20 10:09:40;;;;;;;;;13.20;12.40;;;;;;;;5234738;28;8867;-73
2022/01/20 10:12:26;;;;;;;;;12.00;12.00;;;;;;;;5268349;28;8771;-73
2022/01/20 10:15:10;;;;;;;;;6.00;6.00;;;;;;;;5236495;28;9480;-73
2022/01/20 10:18:12;;;;;;;;;6.60;6.60;;;;;;;;5237401;28;8774;-74
2022/01/20 10:21:03;;;;;;;;;12.40;12.40;;;;;;;;5237000;28;8858;-74
2022/01/20 10:23:47;;;;;;;;;4.80;4.80;;;;;;;;5250084;28;8809;-74
2022/01/20 10:26:34;;;;;;;;;7.00;7.00;;;;;;;;5236643;28;8767;-74
2022/01/20 10:29:23;;;;;;;;;49.40;46.00;;;;;;;;5268718;28;8794;-74
2022/01/20 10:31:54;;;;;;;;;7.80;7.80;;;;;;;;5233933;28;8779;-73
2022/01/20 10:34:30;;;;;;;;;9.60;6.80;;;;;;;;5235030;28;9277;-73
2022/01/20 10:37:09;;;;;;;;;10.00;9.20;;;;;;;;5218521;28;8790;-73
2022/01/20 10:39:45;;;;;;;;;4.80;4.80;;;;;;;;5235200;28;8886;-73
2022/01/20 10:42:21;;;;;;;;;6.00;6.00;;;;;;;;5218032;28;8779;-73
2022/01/20 10:44:54;;;;;;;;;6.00;6.00;;;;;;;;5267376;28;8794;-73
2022/01/20 10:47:25;;;;;;;;;7.00;7.00;;;;;;;;5234372;28;8913;-73
2022/01/20 10:50:11;;;;;;;;;6.40;6.40;;;;;;;;5233811;28;8766;-73
2022/01/20 10:52:47;;;;;;;;;2.80;2.80;;;;;;;;5266847;28;8762;-73
2022/01/20 10:55:30;;;;;;;;;13.40;13.40;;;;;;;;5267951;28;8972;-73
2022/01/20 10:58:12;;;;;;;;;6.20;6.20;;;;;;;;5217073;28;8835;-73
2022/01/20 11:00:48;;;;;;;;;6.80;6.80;;;;;;;;5233521;28;8790;-73
2022/01/20 11:03:21;;;;;;;;;6.00;6.00;;;;;;;;5216908;28;8763;-73
2022/01/20 11:05:54;;;;;;;;;6.40;6.40;;;;;;;;5250051;28;8770;-73
2022/01/20 11:08:44;;;;;;;;;9.40;9.00;;;;;;;;5269144;28;8767;-73
2022/01/20 11:11:18;;;;;;;;;17.20;17.20;;;;;;;;5250480;28;8783;-73
2022/01/20 11:13:55;;;;;;;;;2.60;2.60;;;;;;;;5251701;28;8850;-73
2022/01/20 11:16:26;;;;;;;;;6.80;6.80;;;;;;;;5233555;28;8809;-73
2022/01/20 11:18:57;;;;;;;;;13.80;10.80;;;;;;;;5233663;28;9612;-73
2022/01/20 11:21:28;;;;;;;;;13.80;13.80;;;;;;;;5249481;28;8775;-73
2022/01/20 11:24:00;;;;;;;;;8.60;7.00;;;;;;;;5233168;28;9494;-72
2022/01/20 11:26:56;;;;;;;;;6.60;6.60;;;;;;;;5250546;28;8771;-73
2022/01/20 11:29:46;;;;;;;;;7.00;7.00;;;;;;;;5219248;28;8781;-73
2022/01/20 11:32:36;;;;;;;;;12.00;12.00;;;;;;;;5268467;28;8895;-72
2022/01/20 11:35:36;;;;;;;;;4.40;4.40;;;;;;;;5249816;28;8889;-73
2022/01/20 11:38:39;;;;;;;;;3.60;3.60;;;;;;;;5253257;28;8844;-73
2022/01/20 11:41:13;;;;;;;;;3.40;3.00;;;;;;;;5216277;28;8803;-73
2022/01/20 11:43:45;;;;;;;;;4.80;4.80;;;;;;;;5267800;28;8782;-72
2022/01/20 11:46:18;;;;;;;;;6.00;4.00;;;;;;;;5233227;28;8799;-71
2022/01/20 11:48:49;;;;;;;;;2.60;2.60;;;;;;;;5267449;28;8771;-72
2022/01/20 11:51:20;;;;;;;;;3.25;3.25;;;;;;;;5249845;28;8771;-72
2022/01/20 11:54:10;;;;;;;;;4.80;4.80;;;;;;;;5249919;28;11415;-73
2022/01/20 11:56:42;;;;;;;;;6.20;6.20;;;;;;;;5267124;28;10850;-73
2022/01/20 11:59:14;;;;;;;;;3.00;3.00;;;;;;;;5249692;28;8839;-72
2022/01/20 12:01:48;;;;;;;;;6.80;6.80;;;;;;;;5233334;28;8782;-73
2022/01/20 12:04:33;;;;;;;;;9.00;9.00;;;;;;;;5232467;28;8786;-72
2022/01/20 12:07:06;;;;;;;;;6.60;6.60;;;;;;;;5266090;28;8787;-74
2022/01/20 12:09:39;;;;;;;;;4.20;3.00;;;;;;;;5216144;28;8786;-72
2022/01/20 12:12:25;;;;;;;;;4.80;4.80;;;;;;;;5249344;28;8767;-72
2022/01/20 12:15:05;;;;;;;;;5.20;4.80;;;;;;;;5232805;28;8782;-73
2022/01/20 12:17:37;;;;;;;;;6.60;5.60;;;;;;;;5232928;28;8798;-73
2022/01/20 12:20:10;;;;;;;;;12.00;12.00;;;;;;;;5215885;28;8879;-74
2022/01/20 12:22:42;;;;;;;;;6.00;6.00;;;;;;;;5215887;28;8785;-73
2022/01/20 12:25:17;;;;;;;;;5.60;5.60;;;;;;;;5232698;28;8902;-72
2022/01/20 12:27:49;;;;;;;;;7.40;7.00;;;;;;;;5232596;28;8767;-72
2022/01/20 12:30:25;;;;;;;;;8.40;8.40;;;;;;;;5232417;28;8759;-73
2022/01/20 12:33:15;;;;;;;;;3.00;3.00;;;;;;;;5251895;28;8791;-73
2022/01/20 12:35:48;;;;;;;;;3.20;3.20;;;;;;;;5231971;28;8802;-72
2022/01/20 12:38:26;;;;;;;;;12.40;9.20;;;;;;;;5215707;28;9508;-72
2022/01/20 12:41:09;;;;;;;;;6.00;6.00;;;;;;;;5249600;28;9473;-71
2022/01/20 12:43:44;;;;;;;;;8.20;7.80;;;;;;;;5231987;28;8783;-72
2022/01/20 12:46:17;;;;;;;;;7.40;6.60;;;;;;;;5217732;28;8751;-71
2022/01/20 12:48:51;;;;;;;;;5.00;5.00;;;;;;;;5253828;28;8774;-75
2022/01/20 12:51:30;;;;;;;;;6.00;6.00;;;;;;;;5236301;28;8779;-72
2022/01/20 12:54:06;;;;;;;;;5.20;5.20;;;;;;;;5236380;28;8767;-73
2022/01/20 13:01:07;;;;;;;;;7.00;6.20;;;;;;;;5270708;28;8778;-73
2022/01/20 13:03:39;;;;;;;;;4.00;4.00;;;;;;;;5270436;28;8802;-72
2022/01/20 13:06:20;;;;;;;;;6.40;4.80;;;;;;;;5269340;28;8774;-72
2022/01/20 13:08:58;;;;;;;;;6.20;6.20;;;;;;;;5220017;28;8926;-73
2022/01/20 13:11:53;;;;;;;;;7.40;6.60;;;;;;;;5236441;28;8778;-73
2022/01/20 13:14:34;;;;;;;;;9.00;9.00;;;;;;;;5252301;28;8789;-72
2022/01/20 13:17:11;;;;;;;;;6.40;6.40;;;;;;;;5253202;28;8793;-73
2022/01/20 13:20:11;;;;;;;;;63.00;49.00;;;;;;;;5238110;28;8805;-73
2022/01/20 13:22:54;;;;;;;;;28.20;26.60;;;;;;;;5219204;28;8778;-72
2022/01/20 13:25:29;;;;;;;;;9.40;9.40;;;;;;;;5235938;28;8914;-72
2022/01/20 13:28:19;;;;;;;;;10.60;9.20;;;;;;;;5255114;28;8828;-72
2022/01/20 13:31:15;;;;;;;;;1.00;1.00;;;;;;;;5271120;28;8967;-72
2022/01/20 13:33:46;;;;;;;;;5.80;5.80;;;;;;;;5270644;28;8846;-72
2022/01/20 13:36:20;;;;;;;;;6.25;6.25;;;;;;;;5252743;28;8786;-71
2022/01/20 13:38:57;;;;;;;;;6.60;6.60;;;;;;;;5235214;28;12060;-72
2022/01/20 13:41:29;;;;;;;;;6.40;6.40;;;;;;;;5270186;28;8802;-71
2022/01/20 13:47:08;;;;;;;;;10.00;9.00;;;;;;;;5235862;28;8813;-72
2022/01/20 13:49:47;;;;;;;;;23.20;21.60;;;;;;;;5252498;28;8793;-72
2022/01/20 13:52:20;;;;;;;;;21.20;21.20;;;;;;;;5269924;28;8790;-70
2022/01/20 13:54:52;;;;;;;;;11.60;11.60;;;;;;;;5218403;28;8782;-73
2022/01/20 13:57:23;;;;;;;;;6.00;6.00;;;;;;;;5234466;28;8790;-73
2022/01/20 14:00:14;;;;;;;;;8.20;8.20;;;;;;;;5251629;28;8816;-72
2022/01/20 14:03:06;;;;;;;;;7.00;7.00;;;;;;;;5237596;28;8786;-72
2022/01/20 14:05:37;;;;;;;;;0.00;0.00;;;;;;;;5234874;28;8814;-74
2022/01/20 14:08:08;;;;;;;;;3.00;3.00;;;;;;;;5269770;28;8811;-71
2022/01/20 14:10:39;;;;;;;;;16.00;16.00;;;;;;;;5251212;28;8798;-71
2022/01/20 14:13:10;;;;;;;;;10.00;7.80;;;;;;;;5234564;28;8770;-72
2022/01/20 14:15:41;;;;;;;;;9.25;9.25;;;;;;;;5269112;28;8909;-73
2022/01/20 14:18:18;;;;;;;;;111.33;96.67;;;;;;;;5251370;28;8802;-72
2022/01/20 14:20:49;;;;;;;;;7.40;7.40;;;;;;;;5234361;28;8946;-72
2022/01/20 14:27:44;;;;;;;;;6.60;6.60;;;;;;;;5269012;28;8782;-73
2022/01/20 14:30:15;;;;;;;;;16.80;14.60;;;;;;;;5234494;28;8904;-73
2022/01/20 14:32:46;;;;;;;;;14.20;13.00;;;;;;;;5268584;28;8829;-71
2022/01/20 14:35:17;;;;;;;;;18.75;18.00;;;;;;;;5269278;28;9470;-71
2022/01/20 14:37:48;;;;;;;;;10.00;10.00;;;;;;;;5250788;28;12116;-71
2022/01/20 14:40:20;;;;;;;;;15.60;15.00;;;;;;;;5217631;28;8829;-72
2022/01/20 14:42:52;;;;;;;;;16.80;16.80;;;;;;;;5250806;28;8892;-71
2022/01/20 14:45:23;;;;;;;;;12.40;10.00;;;;;;;;5217533;28;8836;-72
2022/01/20 14:47:53;;;;;;;;;10.00;10.00;;;;;;;;5268722;28;8798;-72
2022/01/20 14:50:27;;;;;;;;;7.50;7.50;;;;;;;;5267227;28;8810;-72
2022/01/20 14:53:17;;;;;;;;;9.00;9.00;;;;;;;;5253399;28;8829;-71
2022/01/20 14:55:48;;;;;;;;;12.25;10.75;;;;;;;;5233895;28;8782;-73
2022/01/20 14:58:19;;;;;;;;;9.00;8.00;;;;;;;;5233627;28;9511;-73
2022/01/20 15:00:50;;;;;;;;;9.00;9.00;;;;;;;;5266893;28;9451;-72
2022/01/20 15:03:21;;;;;;;;;19.00;19.00;;;;;;;;5267005;28;11423;-69
2022/01/20 15:05:52;;;;;;;;;12.60;10.80;;;;;;;;5250684;28;8779;-72
2022/01/20 15:08:23;;;;;;;;;12.75;12.75;;;;;;;;5267597;28;9492;-71
2022/01/20 15:11:12;;;;;;;;;3.00;2.20;;;;;;;;5235815;28;10212;-70
2022/01/20 15:13:43;;;;;;;;;12.75;12.50;;;;;;;;5233771;28;8787;-71
2022/01/20 15:16:14;;;;;;;;;13.75;11.50;;;;;;;;5250511;28;8856;-72
2022/01/20 15:18:45;;;;;;;;;10.50;10.50;;;;;;;;5268432;28;10935;-71
2022/01/20 15:21:16;;;;;;;;;13.25;13.25;;;;;;;;5249821;28;8814;-72
2022/01/20 15:23:48;;;;;;;;;13.00;13.00;;;;;;;;5233837;28;8798;-73
2022/01/20 15:30:42;;;;;;;;;9.60;9.20;;;;;;;;5267831;28;8813;-74
2022/01/20 15:33:14;;;;;;;;;6.60;6.60;;;;;;;;5232942;28;8850;-73
2022/01/20 15:35:45;;;;;;;;;8.20;8.20;;;;;;;;5233026;28;8779;-72
2022/01/20 15:38:16;;;;;;;;;6.00;6.00;;;;;;;;5250432;28;8856;-73
2022/01/20 15:40:47;;;;;;;;;42.50;36.00;;;;;;;;5267794;28;8956;-73
2022/01/20 15:52:05;;;;;;;;;1.00;1.00;;;;;;;;5267783;28;8703;-71
2022/01/20 15:54:36;;;;;;;;;15.00;13.00;;;;;;;;5249631;28;8817;-72
2022/01/20 15:57:07;;;;;;;;;14.25;14.25;;;;;;;;5249406;28;8783;-72
2022/01/20 16:04:14;;;;;;;;;11.60;10.40;;;;;;;;5267139;28;11406;-72
2022/01/20 16:06:47;;;;;;;;;13.80;13.40;;;;;;;;5249429;28;8785;-73
2022/01/20 16:09:18;;;;;;;;;24.40;24.40;;;;;;;;5233005;28;8782;-73
2022/01/20 16:11:49;;;;;;;;;14.00;14.00;;;;;;;;5249131;28;8820;-72
2022/01/20 16:14:20;;;;;;;;;7.25;7.25;;;;;;;;5249269;28;9596;-73
2022/01/20 16:16:51;;;;;;;;;9.25;9.00;;;;;;;;5232576;28;10883;-71
2022/01/20 16:19:21;;;;;;;;;13.00;13.00;;;;;;;;5249190;28;10449;-73
2022/01/20 16:21:52;;;;;;;;;14.75;14.75;;;;;;;;5252123;28;10255;-72
2022/01/20 16:24:23;;;;;;;;;15.00;14.20;;;;;;;;5253380;28;8766;-70
2022/01/20 16:26:54;;;;;;;;;14.00;14.00;;;;;;;;5253100;28;8817;-71
2022/01/20 16:29:26;;;;;;;;;12.75;12.50;;;;;;;;5271283;28;11436;-72
2022/01/20 16:31:57;;;;;;;;;10.00;10.00;;;;;;;;5253491;28;8798;-71
2022/01/20 16:34:28;;;;;;;;;12.00;12.00;;;;;;;;5272732;28;8901;-72
2022/01/20 16:36:59;;;;;;;;;12.25;12.25;;;;;;;;5271101;28;9002;-70
2022/01/20 16:39:30;;;;;;;;;12.00;12.00;;;;;;;;5253140;28;12165;-71
2022/01/20 16:42:02;;;;;;;;;7.40;7.40;;;;;;;;5219412;28;8797;-72
2022/01/20 16:44:52;;;;;;;;;10.80;10.40;;;;;;;;5255971;28;8794;-71
2022/01/20 16:47:42;;;;;;;;;4.00;4.00;;;;;;;;5271878;28;8799;-70
2022/01/20 16:50:31;;;;;;;;;12.80;12.60;;;;;;;;5270408;28;8785;-71
2022/01/20 16:53:03;;;;;;;;;13.20;12.20;;;;;;;;5271187;28;8774;-72
2022/01/20 16:55:34;;;;;;;;;13.40;13.00;;;;;;;;5219867;28;8767;-72
2022/01/20 16:58:05;;;;;;;;;11.50;10.00;;;;;;;;5252510;28;8782;-71
2022/01/20 17:00:35;;;;;;;;;16.80;15.60;;;;;;;;5252424;28;8857;-73
2022/01/20 17:03:25;;;;;;;;;14.80;14.80;;;;;;;;5252148;28;8917;-72
2022/01/20 17:05:59;;;;;;;;;10.60;9.60;;;;;;;;5236067;28;8793;-72
2022/01/20 17:08:30;;;;;;;;;15.40;15.20;;;;;;;;5253011;28;8783;-71
2022/01/20 17:11:20;;;;;;;;;9.40;7.00;;;;;;;;5255190;28;9470;-70
2022/01/20 17:13:50;;;;;;;;;7.00;7.00;;;;;;;;5253094;28;8833;-70
2022/01/20 17:16:21;;;;;;;;;11.50;11.50;;;;;;;;5269963;28;8763;-73
2022/01/20 17:18:52;;;;;;;;;9.50;9.50;;;;;;;;5270119;28;8784;-70